Stoutland, Missouri
Current Conditions -  °F | °C
As of 10:15 AM on Friday 21 Nov 2014 (Local Time) from KH21 Reporting Station
Overcast Overcast  
Wind Chill:   Ceiling: 2200
Heat Index:   Visibility: 10mi
Dew Point: -3°   Wind: 12mph
Humidity: 61%   Direction: 110°ESE
Pressure: 30.28"   Gusts: 17mph
Location:  37.81°N, 92.51°W
Report Text: KH21 211615Z AUTO 11010G15KT 10SM OVC022 04/M03 A3028 RMK AO2
Loading
Personal Weather Stations






























Interactive Weather Map New forecast layout! Learn more

10-Day Weather Forecast

Advertisements
Track Severe Weather on mobile